aviador You're here:

KEUF Decoded Metar

in _UNIDENTIFIED
Report Time2018-06-22 00:58:00
UTC Time2018-06-22 01:26:48
Flight Rules vfr VFR
WindCalm
Visibility9999 m
Phenomena:N/A
Clouds:Scattered 060 Hf
Expected CloudBase > 800 ft AGL from Temp-Dew spread
CeilingNone
Temp26°C (ISA +12)
Dew Point24°C (89% RH)
QNH1012 hPa
Density Alt2,047 ft
Elevation285 ft
Report Wrong Elevation
Raw Report
METAR KEUF 220058Z AUTO 00000KT 10SM SCT060 26/24 A2988 RMK AO2 RAE03
TSB04B12E27 SLP114 P0000 T02560244=

Extra information for KEUF:More info

Metar Taf Metar & Taf Last 4 Metars F.Rules Stats Wind Profile Meteogram Temp Stats Metar ALERT Operation Metar Decoded Social comments